sensor_id;sensor_type;location;lat;lon;timestamp;temperature;humidity
64549;DHT22;49838;51.798;10.954;2024-03-02T00:00:30;14.60;37.80
64549;DHT22;49838;51.798;10.954;2024-03-02T00:02:57;14.50;37.70
64549;DHT22;49838;51.798;10.954;2024-03-02T00:05:25;14.50;37.70
64549;DHT22;49838;51.798;10.954;2024-03-02T00:07:53;14.50;37.60
64549;DHT22;49838;51.798;10.954;2024-03-02T00:10:22;14.60;37.60
64549;DHT22;49838;51.798;10.954;2024-03-02T00:12:56;14.60;37.50
64549;DHT22;49838;51.798;10.954;2024-03-02T00:15:33;14.70;37.40
64549;DHT22;49838;51.798;10.954;2024-03-02T00:18:10;14.70;37.40
64549;DHT22;49838;51.798;10.954;2024-03-02T00:20:39;14.70;37.40
64549;DHT22;49838;51.798;10.954;2024-03-02T00:23:07;14.70;37.40
64549;DHT22;49838;51.798;10.954;2024-03-02T00:25:37;14.70;37.40
64549;DHT22;49838;51.798;10.954;2024-03-02T00:28:11;14.60;37.30
64549;DHT22;49838;51.798;10.954;2024-03-02T00:30:50;14.60;37.30
64549;DHT22;49838;51.798;10.954;2024-03-02T00:33:21;14.60;37.30
64549;DHT22;49838;51.798;10.954;2024-03-02T00:35:49;14.60;37.30
64549;DHT22;49838;51.798;10.954;2024-03-02T00:38:17;14.60;37.30
64549;DHT22;49838;51.798;10.954;2024-03-02T00:40:44;14.50;37.20
64549;DHT22;49838;51.798;10.954;2024-03-02T00:43:18;14.50;37.20
64549;DHT22;49838;51.798;10.954;2024-03-02T00:46:17;14.50;37.30
64549;DHT22;49838;51.798;10.954;2024-03-02T00:48:51;14.40;37.30
64549;DHT22;49838;51.798;10.954;2024-03-02T00:51:20;14.40;37.30
64549;DHT22;49838;51.798;10.954;2024-03-02T00:53:48;14.40;37.40
64549;DHT22;49838;51.798;10.954;2024-03-02T00:56:15;14.40;37.40
64549;DHT22;49838;51.798;10.954;2024-03-02T00:58:44;14.40;37.30
64549;DHT22;49838;51.798;10.954;2024-03-02T01:01:11;14.40;37.30
64549;DHT22;49838;51.798;10.954;2024-03-02T01:03:39;14.30;37.20
64549;DHT22;49838;51.798;10.954;2024-03-02T01:06:07;14.30;37.30
64549;DHT22;49838;51.798;10.954;2024-03-02T01:08:35;14.30;37.30
64549;DHT22;49838;51.798;10.954;2024-03-02T01:11:03;14.30;37.20
64549;DHT22;49838;51.798;10.954;2024-03-02T01:13:30;14.30;37.20
64549;DHT22;49838;51.798;10.954;2024-03-02T01:15:59;14.30;37.20
64549;DHT22;49838;51.798;10.954;2024-03-02T01:18:27;14.30;37.20
64549;DHT22;49838;51.798;10.954;2024-03-02T01:20:54;14.20;37.10
64549;DHT22;49838;51.798;10.954;2024-03-02T01:23:22;14.20;37.10
64549;DHT22;49838;51.798;10.954;2024-03-02T01:25:49;14.20;37.10
64549;DHT22;49838;51.798;10.954;2024-03-02T01:28:16;14.20;37.10
64549;DHT22;49838;51.798;10.954;2024-03-02T01:30:44;14.20;37.10
64549;DHT22;49838;51.798;10.954;2024-03-02T01:33:13;14.20;37.10
64549;DHT22;49838;51.798;10.954;2024-03-02T01:35:40;14.20;37.10
64549;DHT22;49838;51.798;10.954;2024-03-02T01:38:08;14.20;37.10
64549;DHT22;49838;51.798;10.954;2024-03-02T01:40:35;14.10;37.00
64549;DHT22;49838;51.798;10.954;2024-03-02T01:43:03;14.10;37.10
64549;DHT22;49838;51.798;10.954;2024-03-02T01:45:31;14.10;37.10
64549;DHT22;49838;51.798;10.954;2024-03-02T01:47:59;14.10;37.10
64549;DHT22;49838;51.798;10.954;2024-03-02T01:50:29;14.20;37.10
64549;DHT22;49838;51.798;10.954;2024-03-02T01:52:58;14.20;37.00
64549;DHT22;49838;51.798;10.954;2024-03-02T01:55:26;14.20;37.10
64549;DHT22;49838;51.798;10.954;2024-03-02T01:57:55;14.20;37.10
64549;DHT22;49838;51.798;10.954;2024-03-02T02:00:22;14.20;37.10
64549;DHT22;49838;51.798;10.954;2024-03-02T02:02:52;14.20;37.10
64549;DHT22;49838;51.798;10.954;2024-03-02T02:05:19;14.20;37.00
64549;DHT22;49838;51.798;10.954;2024-03-02T02:07:48;14.20;37.00
64549;DHT22;49838;51.798;10.954;2024-03-02T02:10:16;14.20;37.00
64549;DHT22;49838;51.798;10.954;2024-03-02T02:12:43;14.20;36.90
64549;DHT22;49838;51.798;10.954;2024-03-02T02:15:23;14.30;37.00
64549;DHT22;49838;51.798;10.954;2024-03-02T02:17:51;14.20;37.00
64549;DHT22;49838;51.798;10.954;2024-03-02T02:20:18;14.30;37.10
64549;DHT22;49838;51.798;10.954;2024-03-02T02:23:00;14.30;37.00
64549;DHT22;49838;51.798;10.954;2024-03-02T02:25:28;14.20;36.90
64549;DHT22;49838;51.798;10.954;2024-03-02T02:27:56;14.20;36.90
64549;DHT22;49838;51.798;10.954;2024-03-02T02:30:24;14.30;37.10
64549;DHT22;49838;51.798;10.954;2024-03-02T02:32:53;14.30;37.10
64549;DHT22;49838;51.798;10.954;2024-03-02T02:35:20;14.30;37.10
64549;DHT22;49838;51.798;10.954;2024-03-02T02:37:48;14.30;37.00
64549;DHT22;49838;51.798;10.954;2024-03-02T02:40:18;14.30;37.00
64549;DHT22;49838;51.798;10.954;2024-03-02T02:42:46;14.40;37.00
64549;DHT22;49838;51.798;10.954;2024-03-02T02:45:14;14.40;37.10
64549;DHT22;49838;51.798;10.954;2024-03-02T02:47:41;14.40;37.20
64549;DHT22;49838;51.798;10.954;2024-03-02T02:50:09;14.40;37.20
64549;DHT22;49838;51.798;10.954;2024-03-02T02:52:37;14.40;37.10
64549;DHT22;49838;51.798;10.954;2024-03-02T02:55:07;14.40;37.20
64549;DHT22;49838;51.798;10.954;2024-03-02T02:57:37;14.40;37.10
64549;DHT22;49838;51.798;10.954;2024-03-02T03:00:06;14.40;37.10
64549;DHT22;49838;51.798;10.954;2024-03-02T03:02:40;14.40;37.00
64549;DHT22;49838;51.798;10.954;2024-03-02T03:05:08;14.40;37.00
64549;DHT22;49838;51.798;10.954;2024-03-02T03:07:36;14.40;37.10
64549;DHT22;49838;51.798;10.954;2024-03-02T03:10:05;14.40;37.00
64549;DHT22;49838;51.798;10.954;2024-03-02T03:12:34;14.40;37.10
64549;DHT22;49838;51.798;10.954;2024-03-02T03:15:03;14.40;37.10
64549;DHT22;49838;51.798;10.954;2024-03-02T03:17:32;14.40;37.10
64549;DHT22;49838;51.798;10.954;2024-03-02T03:20:00;14.40;37.10
64549;DHT22;49838;51.798;10.954;2024-03-02T03:22:28;14.50;37.10
64549;DHT22;49838;51.798;10.954;2024-03-02T03:24:55;14.50;37.10
64549;DHT22;49838;51.798;10.954;2024-03-02T03:27:22;14.50;37.00
64549;DHT22;49838;51.798;10.954;2024-03-02T03:29:50;14.50;37.00
64549;DHT22;49838;51.798;10.954;2024-03-02T03:32:18;14.50;37.10
64549;DHT22;49838;51.798;10.954;2024-03-02T03:34:46;14.50;37.10
64549;DHT22;49838;51.798;10.954;2024-03-02T03:37:13;14.50;37.10
64549;DHT22;49838;51.798;10.954;2024-03-02T03:39:41;14.60;37.20
64549;DHT22;49838;51.798;10.954;2024-03-02T03:42:08;14.60;37.10
64549;DHT22;49838;51.798;10.954;2024-03-02T03:44:36;14.60;37.80
64549;DHT22;49838;51.798;10.954;2024-03-02T03:47:03;14.60;37.20
64549;DHT22;49838;51.798;10.954;2024-03-02T03:49:32;14.70;37.20
64549;DHT22;49838;51.798;10.954;2024-03-02T03:51:59;14.70;37.10
64549;DHT22;49838;51.798;10.954;2024-03-02T03:54:26;14.70;37.10
64549;DHT22;49838;51.798;10.954;2024-03-02T03:56:54;14.70;37.10
64549;DHT22;49838;51.798;10.954;2024-03-02T03:59:22;14.70;37.10
64549;DHT22;49838;51.798;10.954;2024-03-02T04:01:49;14.80;37.20
64549;DHT22;49838;51.798;10.954;2024-03-02T04:04:17;14.90;37.20
64549;DHT22;49838;51.798;10.954;2024-03-02T04:06:48;14.90;37.10
64549;DHT22;49838;51.798;10.954;2024-03-02T04:09:16;14.90;37.20
64549;DHT22;49838;51.798;10.954;2024-03-02T04:11:43;14.80;37.20
64549;DHT22;49838;51.798;10.954;2024-03-02T04:14:10;14.70;37.30
64549;DHT22;49838;51.798;10.954;2024-03-02T04:16:38;14.70;37.50
64549;DHT22;49838;51.798;10.954;2024-03-02T04:19:05;14.70;37.60
64549;DHT22;49838;51.798;10.954;2024-03-02T04:21:33;14.70;37.40
64549;DHT22;49838;51.798;10.954;2024-03-02T04:24:01;14.60;37.50
64549;DHT22;49838;51.798;10.954;2024-03-02T04:26:29;14.60;37.50
64549;DHT22;49838;51.798;10.954;2024-03-02T04:28:56;14.60;37.60
64549;DHT22;49838;51.798;10.954;2024-03-02T04:31:23;14.60;37.60
64549;DHT22;49838;51.798;10.954;2024-03-02T04:33:51;14.50;37.60
64549;DHT22;49838;51.798;10.954;2024-03-02T04:36:18;14.50;37.70
64549;DHT22;49838;51.798;10.954;2024-03-02T04:38:45;14.50;37.70
64549;DHT22;49838;51.798;10.954;2024-03-02T04:41:16;14.40;37.60
64549;DHT22;49838;51.798;10.954;2024-03-02T04:43:44;14.40;37.60
64549;DHT22;49838;51.798;10.954;2024-03-02T04:46:11;14.50;37.60
64549;DHT22;49838;51.798;10.954;2024-03-02T04:48:38;14.50;37.50
64549;DHT22;49838;51.798;10.954;2024-03-02T04:51:06;14.60;37.60
64549;DHT22;49838;51.798;10.954;2024-03-02T04:53:33;14.60;37.60
64549;DHT22;49838;51.798;10.954;2024-03-02T04:56:00;14.50;37.50
64549;DHT22;49838;51.798;10.954;2024-03-02T04:58:54;14.60;37.60
64549;DHT22;49838;51.798;10.954;2024-03-02T05:01:22;14.60;37.70
64549;DHT22;49838;51.798;10.954;2024-03-02T05:03:49;14.50;37.60
64549;DHT22;49838;51.798;10.954;2024-03-02T05:06:17;14.50;37.50
64549;DHT22;49838;51.798;10.954;2024-03-02T05:08:47;14.50;37.50
64549;DHT22;49838;51.798;10.954;2024-03-02T05:11:14;14.60;37.50
64549;DHT22;49838;51.798;10.954;2024-03-02T05:14:20;14.50;37.40
64549;DHT22;49838;51.798;10.954;2024-03-02T05:16:47;14.60;37.50
64549;DHT22;49838;51.798;10.954;2024-03-02T05:19:14;14.50;37.40
64549;DHT22;49838;51.798;10.954;2024-03-02T05:21:42;14.60;37.50
64549;DHT22;49838;51.798;10.954;2024-03-02T05:24:09;14.50;37.40
64549;DHT22;49838;51.798;10.954;2024-03-02T05:26:36;14.50;37.40
64549;DHT22;49838;51.798;10.954;2024-03-02T05:29:04;14.50;37.40
64549;DHT22;49838;51.798;10.954;2024-03-02T05:31:32;14.50;37.40
64549;DHT22;49838;51.798;10.954;2024-03-02T05:33:59;14.50;38.10
64549;DHT22;49838;51.798;10.954;2024-03-02T05:36:27;14.40;37.30
64549;DHT22;49838;51.798;10.954;2024-03-02T05:38:54;14.40;37.30
64549;DHT22;49838;51.798;10.954;2024-03-02T05:41:22;14.40;37.40
64549;DHT22;49838;51.798;10.954;2024-03-02T05:43:49;14.40;37.40
64549;DHT22;49838;51.798;10.954;2024-03-02T05:46:16;14.40;37.40
64549;DHT22;49838;51.798;10.954;2024-03-02T05:48:45;14.40;37.40
64549;DHT22;49838;51.798;10.954;2024-03-02T05:51:12;14.40;37.40
64549;DHT22;49838;51.798;10.954;2024-03-02T05:53:39;14.50;37.40
64549;DHT22;49838;51.798;10.954;2024-03-02T05:56:07;14.50;37.40
64549;DHT22;49838;51.798;10.954;2024-03-02T05:58:35;14.50;37.40
64549;DHT22;49838;51.798;10.954;2024-03-02T06:01:15;14.50;37.40
64549;DHT22;49838;51.798;10.954;2024-03-02T06:03:45;14.50;37.40
64549;DHT22;49838;51.798;10.954;2024-03-02T06:06:12;14.50;37.40
64549;DHT22;49838;51.798;10.954;2024-03-02T06:08:39;14.40;37.30
64549;DHT22;49838;51.798;10.954;2024-03-02T06:11:07;14.50;37.50
64549;DHT22;49838;51.798;10.954;2024-03-02T06:13:34;14.50;37.40
64549;DHT22;49838;51.798;10.954;2024-03-02T06:16:01;14.50;37.40
64549;DHT22;49838;51.798;10.954;2024-03-02T06:18:29;14.50;37.40
64549;DHT22;49838;51.798;10.954;2024-03-02T06:20:57;14.50;37.40
64549;DHT22;49838;51.798;10.954;2024-03-02T06:23:25;14.60;37.50
64549;DHT22;49838;51.798;10.954;2024-03-02T06:25:52;14.60;37.40
64549;DHT22;49838;51.798;10.954;2024-03-02T06:28:19;14.60;37.40
64549;DHT22;49838;51.798;10.954;2024-03-02T06:30:47;14.70;37.40
64549;DHT22;49838;51.798;10.954;2024-03-02T06:33:14;14.80;37.40
64549;DHT22;49838;51.798;10.954;2024-03-02T06:35:41;14.90;37.40
64549;DHT22;49838;51.798;10.954;2024-03-02T06:38:10;15.00;37.40
64549;DHT22;49838;51.798;10.954;2024-03-02T06:40:37;15.10;37.40
64549;DHT22;49838;51.798;10.954;2024-03-02T06:43:05;15.20;37.40
64549;DHT22;49838;51.798;10.954;2024-03-02T06:45:33;15.30;37.50
64549;DHT22;49838;51.798;10.954;2024-03-02T06:48:00;15.40;37.50
64549;DHT22;49838;51.798;10.954;2024-03-02T06:50:28;15.40;37.40
64549;DHT22;49838;51.798;10.954;2024-03-02T06:52:55;15.50;37.50
64549;DHT22;49838;51.798;10.954;2024-03-02T06:55:24;15.50;37.50
64549;DHT22;49838;51.798;10.954;2024-03-02T06:57:51;15.50;37.60
64549;DHT22;49838;51.798;10.954;2024-03-02T07:00:19;15.50;37.70
64549;DHT22;49838;51.798;10.954;2024-03-02T07:02:47;15.50;37.80
64549;DHT22;49838;51.798;10.954;2024-03-02T07:05:14;15.40;37.80
64549;DHT22;49838;51.798;10.954;2024-03-02T07:07:42;15.50;37.90
64549;DHT22;49838;51.798;10.954;2024-03-02T07:10:09;15.50;37.90
64549;DHT22;49838;51.798;10.954;2024-03-02T07:12:37;15.50;37.90
64549;DHT22;49838;51.798;10.954;2024-03-02T07:15:05;15.60;37.90
64549;DHT22;49838;51.798;10.954;2024-03-02T07:17:55;15.60;38.10
64549;DHT22;49838;51.798;10.954;2024-03-02T07:20:23;15.60;37.90
64549;DHT22;49838;51.798;10.954;2024-03-02T07:22:50;15.70;37.90
64549;DHT22;49838;51.798;10.954;2024-03-02T07:25:17;15.70;37.90
64549;DHT22;49838;51.798;10.954;2024-03-02T07:27:46;15.80;38.00
64549;DHT22;49838;51.798;10.954;2024-03-02T07:30:14;15.80;37.90
64549;DHT22;49838;51.798;10.954;2024-03-02T07:32:43;15.90;37.90
64549;DHT22;49838;51.798;10.954;2024-03-02T07:35:11;16.00;37.90
64549;DHT22;49838;51.798;10.954;2024-03-02T07:37:40;16.00;37.90
64549;DHT22;49838;51.798;10.954;2024-03-02T07:40:11;16.10;38.00
64549;DHT22;49838;51.798;10.954;2024-03-02T07:42:39;16.10;38.00
64549;DHT22;49838;51.798;10.954;2024-03-02T07:45:08;16.20;38.10
64549;DHT22;49838;51.798;10.954;2024-03-02T07:47:36;16.30;38.20
64549;DHT22;49838;51.798;10.954;2024-03-02T07:50:03;16.40;38.40
64549;DHT22;49838;51.798;10.954;2024-03-02T07:52:32;16.40;38.50
64549;DHT22;49838;51.798;10.954;2024-03-02T07:54:59;16.60;38.70
64549;DHT22;49838;51.798;10.954;2024-03-02T07:57:27;16.70;38.70
64549;DHT22;49838;51.798;10.954;2024-03-02T07:59:54;16.80;38.80
64549;DHT22;49838;51.798;10.954;2024-03-02T08:02:23;16.90;38.90
64549;DHT22;49838;51.798;10.954;2024-03-02T08:04:50;17.10;39.10
64549;DHT22;49838;51.798;10.954;2024-03-02T08:07:17;17.30;39.30
64549;DHT22;49838;51.798;10.954;2024-03-02T08:09:45;17.50;39.60
64549;DHT22;49838;51.798;10.954;2024-03-02T08:12:12;17.80;40.00
64549;DHT22;49838;51.798;10.954;2024-03-02T08:14:39;18.00;40.20
64549;DHT22;49838;51.798;10.954;2024-03-02T08:17:07;18.30;40.40
64549;DHT22;49838;51.798;10.954;2024-03-02T08:19:36;18.70;40.70
64549;DHT22;49838;51.798;10.954;2024-03-02T08:22:04;19.00;41.00
64549;DHT22;49838;51.798;10.954;2024-03-02T08:24:31;19.40;41.30
64549;DHT22;49838;51.798;10.954;2024-03-02T08:26:59;19.70;41.60
64549;DHT22;49838;51.798;10.954;2024-03-02T08:29:27;20.00;41.90
64549;DHT22;49838;51.798;10.954;2024-03-02T08:31:54;20.40;42.10
64549;DHT22;49838;51.798;10.954;2024-03-02T08:34:21;20.80;42.20
64549;DHT22;49838;51.798;10.954;2024-03-02T08:36:50;21.10;42.10
64549;DHT22;49838;51.798;10.954;2024-03-02T08:39:17;21.40;41.80
64549;DHT22;49838;51.798;10.954;2024-03-02T08:41:45;21.50;41.60
64549;DHT22;49838;51.798;10.954;2024-03-02T08:44:13;21.60;41.30
64549;DHT22;49838;51.798;10.954;2024-03-02T08:46:41;21.60;41.20
64549;DHT22;49838;51.798;10.954;2024-03-02T08:49:08;21.60;41.10
64549;DHT22;49838;51.798;10.954;2024-03-02T08:51:36;21.70;41.30
64549;DHT22;49838;51.798;10.954;2024-03-02T08:54:04;22.00;41.60
64549;DHT22;49838;51.798;10.954;2024-03-02T08:56:32;22.40;42.00
64549;DHT22;49838;51.798;10.954;2024-03-02T08:58:59;22.80;42.20
64549;DHT22;49838;51.798;10.954;2024-03-02T09:01:26;23.30;42.00
64549;DHT22;49838;51.798;10.954;2024-03-02T09:03:54;23.70;42.40
64549;DHT22;49838;51.798;10.954;2024-03-02T09:06:21;24.10;42.40
64549;DHT22;49838;51.798;10.954;2024-03-02T09:08:48;24.50;42.60
64549;DHT22;49838;51.798;10.954;2024-03-02T09:11:19;25.00;42.90
64549;DHT22;49838;51.798;10.954;2024-03-02T09:13:46;25.40;42.70
64549;DHT22;49838;51.798;10.954;2024-03-02T09:16:13;25.90;43.10
64549;DHT22;49838;51.798;10.954;2024-03-02T09:18:40;26.40;43.10
64549;DHT22;49838;51.798;10.954;2024-03-02T09:21:08;26.90;43.20
64549;DHT22;49838;51.798;10.954;2024-03-02T09:23:36;27.50;43.40
64549;DHT22;49838;51.798;10.954;2024-03-02T09:26:04;28.10;43.40
64549;DHT22;49838;51.798;10.954;2024-03-02T09:28:32;28.70;42.90
64549;DHT22;49838;51.798;10.954;2024-03-02T09:31:00;29.20;42.90
64549;DHT22;49838;51.798;10.954;2024-03-02T09:33:27;29.80;42.80
64549;DHT22;49838;51.798;10.954;2024-03-02T09:35:55;30.10;41.20
64549;DHT22;49838;51.798;10.954;2024-03-02T09:38:22;30.50;41.50
64549;DHT22;49838;51.798;10.954;2024-03-02T09:40:49;30.90;41.30
64549;DHT22;49838;51.798;10.954;2024-03-02T09:43:17;31.20;40.60
64549;DHT22;49838;51.798;10.954;2024-03-02T09:45:46;31.30;40.00
64549;DHT22;49838;51.798;10.954;2024-03-02T09:48:13;31.40;39.50
64549;DHT22;49838;51.798;10.954;2024-03-02T09:50:44;31.30;38.90
64549;DHT22;49838;51.798;10.954;2024-03-02T09:53:11;31.20;38.20
64549;DHT22;49838;51.798;10.954;2024-03-02T09:55:39;31.10;38.00
64549;DHT22;49838;51.798;10.954;2024-03-02T09:58:09;31.00;37.70
64549;DHT22;49838;51.798;10.954;2024-03-02T10:00:36;30.80;37.40
64549;DHT22;49838;51.798;10.954;2024-03-02T10:03:05;30.50;36.90
64549;DHT22;49838;51.798;10.954;2024-03-02T10:05:38;30.10;36.60
64549;DHT22;49838;51.798;10.954;2024-03-02T10:08:06;29.60;36.60
64549;DHT22;49838;51.798;10.954;2024-03-02T10:10:36;29.20;36.50
64549;DHT22;49838;51.798;10.954;2024-03-02T10:13:06;28.80;36.10
64549;DHT22;49838;51.798;10.954;2024-03-02T10:15:34;28.30;35.70
64549;DHT22;49838;51.798;10.954;2024-03-02T10:18:03;27.80;35.80
64549;DHT22;49838;51.798;10.954;2024-03-02T10:20:32;27.40;35.80
64549;DHT22;49838;51.798;10.954;2024-03-02T10:23:09;27.00;35.80
64549;DHT22;49838;51.798;10.954;2024-03-02T10:25:37;26.70;35.70
64549;DHT22;49838;51.798;10.954;2024-03-02T10:28:04;26.30;35.70
64549;DHT22;49838;51.798;10.954;2024-03-02T10:30:32;26.10;35.90
64549;DHT22;49838;51.798;10.954;2024-03-02T10:33:00;25.80;35.90
64549;DHT22;49838;51.798;10.954;2024-03-02T10:35:28;25.50;36.00
64549;DHT22;49838;51.798;10.954;2024-03-02T10:37:58;25.30;35.90
64549;DHT22;49838;51.798;10.954;2024-03-02T10:40:26;25.00;35.80
64549;DHT22;49838;51.798;10.954;2024-03-02T10:42:53;24.60;35.20
64549;DHT22;49838;51.798;10.954;2024-03-02T10:45:21;24.40;35.30
64549;DHT22;49838;51.798;10.954;2024-03-02T10:47:50;24.10;35.30
64549;DHT22;49838;51.798;10.954;2024-03-02T10:50:17;23.80;35.30
64549;DHT22;49838;51.798;10.954;2024-03-02T10:52:44;23.60;35.40
64549;DHT22;49838;51.798;10.954;2024-03-02T10:55:13;23.50;35.40
64549;DHT22;49838;51.798;10.954;2024-03-02T10:57:41;23.40;35.40
64549;DHT22;49838;51.798;10.954;2024-03-02T11:00:13;23.30;35.40
64549;DHT22;49838;51.798;10.954;2024-03-02T11:02:46;23.30;35.30
64549;DHT22;49838;51.798;10.954;2024-03-02T11:05:23;23.20;35.30
64549;DHT22;49838;51.798;10.954;2024-03-02T11:07:57;23.30;35.30
64549;DHT22;49838;51.798;10.954;2024-03-02T11:10:30;23.30;35.10
64549;DHT22;49838;51.798;10.954;2024-03-02T11:13:02;23.50;35.10
64549;DHT22;49838;51.798;10.954;2024-03-02T11:15:34;23.90;35.90
64549;DHT22;49838;51.798;10.954;2024-03-02T11:18:03;24.30;36.20
64549;DHT22;49838;51.798;10.954;2024-03-02T11:20:35;24.80;37.00
64549;DHT22;49838;51.798;10.954;2024-03-02T11:23:06;25.40;37.50
64549;DHT22;49838;51.798;10.954;2024-03-02T11:25:36;26.20;38.40
64549;DHT22;49838;51.798;10.954;2024-03-02T11:28:04;26.90;38.30
64549;DHT22;49838;51.798;10.954;2024-03-02T11:30:49;27.50;38.80
64549;DHT22;49838;51.798;10.954;2024-03-02T11:33:23;28.20;39.00
64549;DHT22;49838;51.798;10.954;2024-03-02T11:35:53;28.80;39.00
64549;DHT22;49838;51.798;10.954;2024-03-02T11:38:21;29.40;38.90
64549;DHT22;49838;51.798;10.954;2024-03-02T11:40:52;29.70;38.40
64549;DHT22;49838;51.798;10.954;2024-03-02T11:43:20;29.90;37.30
64549;DHT22;49838;51.798;10.954;2024-03-02T11:45:47;29.80;37.10
64549;DHT22;49838;51.798;10.954;2024-03-02T11:48:15;29.50;36.50
64549;DHT22;49838;51.798;10.954;2024-03-02T11:50:46;29.10;36.10
64549;DHT22;49838;51.798;10.954;2024-03-02T11:53:14;28.60;35.70
64549;DHT22;49838;51.798;10.954;2024-03-02T11:55:43;28.10;35.80
64549;DHT22;49838;51.798;10.954;2024-03-02T11:58:13;27.60;35.60
64549;DHT22;49838;51.798;10.954;2024-03-02T12:00:43;27.10;35.50
64549;DHT22;49838;51.798;10.954;2024-03-02T12:03:13;26.70;35.50
64549;DHT22;49838;51.798;10.954;2024-03-02T12:05:41;26.30;35.20
64549;DHT22;49838;51.798;10.954;2024-03-02T12:08:10;26.00;35.20
64549;DHT22;49838;51.798;10.954;2024-03-02T12:10:39;25.70;35.20
64549;DHT22;49838;51.798;10.954;2024-03-02T12:13:07;25.50;35.10
64549;DHT22;49838;51.798;10.954;2024-03-02T12:15:38;25.30;35.10
64549;DHT22;49838;51.798;10.954;2024-03-02T12:18:06;25.20;35.00
64549;DHT22;49838;51.798;10.954;2024-03-02T12:20:33;25.00;35.10
64549;DHT22;49838;51.798;10.954;2024-03-02T12:23:01;24.90;35.00
64549;DHT22;49838;51.798;10.954;2024-03-02T12:25:31;24.90;35.60
64549;DHT22;49838;51.798;10.954;2024-03-02T12:28:00;24.80;35.00
64549;DHT22;49838;51.798;10.954;2024-03-02T12:30:29;24.80;34.90
64549;DHT22;49838;51.798;10.954;2024-03-02T12:32:58;24.60;34.70
64549;DHT22;49838;51.798;10.954;2024-03-02T12:35:26;24.50;34.60
64549;DHT22;49838;51.798;10.954;2024-03-02T12:37:53;24.40;34.70
64549;DHT22;49838;51.798;10.954;2024-03-02T12:40:21;24.40;34.70
64549;DHT22;49838;51.798;10.954;2024-03-02T12:42:49;24.30;34.70
64549;DHT22;49838;51.798;10.954;2024-03-02T12:45:17;24.30;34.70
64549;DHT22;49838;51.798;10.954;2024-03-02T12:47:49;24.30;34.60
64549;DHT22;49838;51.798;10.954;2024-03-02T12:50:19;24.20;34.40
64549;DHT22;49838;51.798;10.954;2024-03-02T12:52:50;24.00;34.10
64549;DHT22;49838;51.798;10.954;2024-03-02T12:55:19;23.90;34.40
64549;DHT22;49838;51.798;10.954;2024-03-02T12:57:49;23.80;34.40
64549;DHT22;49838;51.798;10.954;2024-03-02T13:00:17;23.70;34.30
64549;DHT22;49838;51.798;10.954;2024-03-02T13:02:46;23.60;34.30
64549;DHT22;49838;51.798;10.954;2024-03-02T13:05:14;23.50;34.20
64549;DHT22;49838;51.798;10.954;2024-03-02T13:07:43;23.40;34.20
64549;DHT22;49838;51.798;10.954;2024-03-02T13:10:10;23.30;34.30
64549;DHT22;49838;51.798;10.954;2024-03-02T13:12:39;23.20;34.20
64549;DHT22;49838;51.798;10.954;2024-03-02T13:15:08;23.10;34.10
64549;DHT22;49838;51.798;10.954;2024-03-02T13:17:35;23.00;34.10
64549;DHT22;49838;51.798;10.954;2024-03-02T13:20:02;22.90;34.10
64549;DHT22;49838;51.798;10.954;2024-03-02T13:22:33;22.80;34.20
64549;DHT22;49838;51.798;10.954;2024-03-02T13:25:02;22.70;34.20
64549;DHT22;49838;51.798;10.954;2024-03-02T13:27:30;22.60;34.10
64549;DHT22;49838;51.798;10.954;2024-03-02T13:29:58;22.60;34.10
64549;DHT22;49838;51.798;10.954;2024-03-02T13:32:25;22.50;34.10
64549;DHT22;49838;51.798;10.954;2024-03-02T13:34:52;22.60;34.30
64549;DHT22;49838;51.798;10.954;2024-03-02T13:37:20;22.50;34.20
64549;DHT22;49838;51.798;10.954;2024-03-02T13:39:47;22.50;34.30
64549;DHT22;49838;51.798;10.954;2024-03-02T13:42:16;22.50;34.20
64549;DHT22;49838;51.798;10.954;2024-03-02T13:44:43;22.40;34.20
64549;DHT22;49838;51.798;10.954;2024-03-02T13:47:14;22.40;34.30
64549;DHT22;49838;51.798;10.954;2024-03-02T13:49:41;22.40;34.20
64549;DHT22;49838;51.798;10.954;2024-03-02T13:52:10;22.30;34.10
64549;DHT22;49838;51.798;10.954;2024-03-02T13:54:39;22.30;34.10
64549;DHT22;49838;51.798;10.954;2024-03-02T13:57:07;22.20;34.10
64549;DHT22;49838;51.798;10.954;2024-03-02T13:59:37;22.10;34.10
64549;DHT22;49838;51.798;10.954;2024-03-02T14:02:05;22.10;34.20
64549;DHT22;49838;51.798;10.954;2024-03-02T14:04:33;22.10;34.20
64549;DHT22;49838;51.798;10.954;2024-03-02T14:07:01;22.00;34.20
64549;DHT22;49838;51.798;10.954;2024-03-02T14:09:29;21.90;34.10
64549;DHT22;49838;51.798;10.954;2024-03-02T14:11:57;21.90;34.10
64549;DHT22;49838;51.798;10.954;2024-03-02T14:14:26;21.80;34.10
64549;DHT22;49838;51.798;10.954;2024-03-02T14:16:55;21.70;34.10
64549;DHT22;49838;51.798;10.954;2024-03-02T14:19:26;21.60;34.10
64549;DHT22;49838;51.798;10.954;2024-03-02T14:21:53;21.60;34.00
64549;DHT22;49838;51.798;10.954;2024-03-02T14:24:20;21.50;34.00
64549;DHT22;49838;51.798;10.954;2024-03-02T14:26:49;21.50;34.10
64549;DHT22;49838;51.798;10.954;2024-03-02T14:29:17;21.50;34.10
64549;DHT22;49838;51.798;10.954;2024-03-02T14:31:44;21.50;34.10
64549;DHT22;49838;51.798;10.954;2024-03-02T14:34:15;21.50;34.10
64549;DHT22;49838;51.798;10.954;2024-03-02T14:36:42;21.50;34.10
64549;DHT22;49838;51.798;10.954;2024-03-02T14:39:10;21.40;34.10
64549;DHT22;49838;51.798;10.954;2024-03-02T14:41:37;21.40;34.10
64549;DHT22;49838;51.798;10.954;2024-03-02T14:44:05;21.30;34.00
64549;DHT22;49838;51.798;10.954;2024-03-02T14:46:32;21.20;34.00
64549;DHT22;49838;51.798;10.954;2024-03-02T14:49:00;21.20;34.00
64549;DHT22;49838;51.798;10.954;2024-03-02T14:51:28;21.20;34.00
64549;DHT22;49838;51.798;10.954;2024-03-02T14:53:56;21.10;33.90
64549;DHT22;49838;51.798;10.954;2024-03-02T14:56:23;21.10;34.00
64549;DHT22;49838;51.798;10.954;2024-03-02T14:58:50;21.00;34.00
64549;DHT22;49838;51.798;10.954;2024-03-02T15:01:18;20.90;33.90
64549;DHT22;49838;51.798;10.954;2024-03-02T15:03:47;20.80;33.80
64549;DHT22;49838;51.798;10.954;2024-03-02T15:06:14;20.70;33.80
64549;DHT22;49838;51.798;10.954;2024-03-02T15:08:43;20.70;33.90
64549;DHT22;49838;51.798;10.954;2024-03-02T15:11:12;20.60;33.80
64549;DHT22;49838;51.798;10.954;2024-03-02T15:13:40;20.50;33.90
64549;DHT22;49838;51.798;10.954;2024-03-02T15:16:08;20.40;33.80
64549;DHT22;49838;51.798;10.954;2024-03-02T15:18:35;20.30;33.90
64549;DHT22;49838;51.798;10.954;2024-03-02T15:21:03;20.20;33.90
64549;DHT22;49838;51.798;10.954;2024-03-02T15:23:31;20.10;33.90